Latest Weather Observations for Gannett Cay

IDQ60801

Issued at 7:07 pm EST Wednesday 28 January 2015 (issued every 30 minutes, with the page automatically refreshed every 10 minutes)

About weather observations | Map of weather stations | Latest weather observations for QLD | Other Formats
Station Details ID: 200831 Name: GANNET CAY Lat: -21.98 Lon: 152.47 Height: 2.3 m
Data from the previous 72 hours. | See also: Recent months for locations in Queensland
Date/Time
EST
Temp
°C
App
Temp
°C
Dew
Point
Rel
Hum
%
Delta-T
°C
Wind Press
QNH
hPa
Press
MSL
hPa
Rain
since 9 am
mm
Dir
 
Spd
km/h
Gust
km/h
Spd
kts
Gust
kts
28/07:00pm 24.6 - - - - SSE 26 37 14 20 1002.7 - -
28/06:30pm 25.7 - - - - SE 24 30 13 16 1002.5 - -
28/06:29pm 25.6 - - - - SE 24 24 13 13 1002.5 1002.7 -
28/06:00pm 24.7 - - - - SE 37 44 20 24 1001.7 - -
28/05:30pm 26.3 - - - - ESE 33 37 18 20 1001.4 - -
28/05:29pm 26.3 - - - - ESE 33 33 18 18 1001.4 1001.6 -
28/05:00pm 26.2 - - - - SE 30 33 16 18 1001.0 - -
28/04:30pm 26.1 - - - - SE 33 35 18 19 1000.6 - -
28/04:29pm 26.3 - - - - SE 33 35 18 19 1000.6 1000.8 -
28/04:00pm 26.4 - - - - ESE 35 39 19 21 1000.4 - -
28/03:30pm 26.3 - - - - ESE 33 37 18 20 1000.5 - -
28/03:29pm 26.1 - - - - ESE 33 37 18 20 1000.5 1000.7 -
28/03:00pm 26.5 - - - - ESE 32 35 17 19 1000.6 - -
28/02:30pm 26.8 - - - - ESE 28 32 15 17 1000.9 - -
28/02:29pm 26.9 - - - - ESE 28 28 15 15 1000.9 1001.1 -
28/02:00pm 27.0 - - - - ESE 28 32 15 17 1000.5 - -
28/01:30pm 26.1 - - - - ESE 26 28 14 15 1000.8 - -
28/01:29pm 25.9 - - - - ESE 26 26 14 14 1000.8 1001.0 -
28/01:00pm 26.9 - - - - ESE 24 26 13 14 1001.1 - -
28/12:30pm 26.1 - - - - ESE 28 30 15 16 1001.4 - -
28/12:29pm 26.1 - - - - ESE 28 28 15 15 1001.5 1001.7 -
28/12:00pm 26.3 - - - - ESE 32 35 17 19 1001.8 - -
28/11:30am 26.5 - - - - ESE 32 39 17 21 1002.0 - -
28/11:29am 26.6 - - - - ESE 32 32 17 17 1002.1 1002.3 -
28/11:00am 27.3 - - - - ESE 20 26 11 14 1002.0 - -
28/10:30am 27.5 - - - - ENE 26 30 14 16 1001.8 - -
28/10:29am 27.6 - - - - ENE 26 28 14 15 1001.8 1002.0 -
28/10:00am 27.5 - - - - ESE 24 30 13 16 1002.0 - -
28/09:30am 28.2 - - - - E 28 33 15 18 1001.9 - -
28/09:29am 28.2 - - - - E 28 30 15 16 1002.0 1002.2 -
28/09:00am 27.9 - - - - E 26 28 14 15 1002.1 - -
28/08:30am 26.7 - - - - ENE 30 35 16 19 1002.0 - -
28/08:29am 26.7 - - - - ENE 30 - 16 - - 1002.2 -
28/08:00am 26.2 - - - - ENE 33 35 18 19 1001.9 - -
28/07:30am 26.4 - - - - ENE 33 39 18 21 1001.8 - -
28/07:29am 26.5 - - - - ENE 33 - 18 - - 1002.0 -
28/07:00am 26.6 - - - - E 33 35 18 19 1001.7 - -
28/06:30am 27.2 - - - - E 30 35 16 19 1001.5 - -
28/06:29am 27.3 - - - - E 30 - 16 - - 1001.7 -
28/06:00am 26.9 - - - - E 24 28 13 15 1001.3 - -
28/05:30am 26.7 - - - - ENE 26 32 14 17 1000.8 - -
28/05:29am 26.6 - - - - ENE 28 - 15 - - 1001.0 -
28/05:00am 27.3 - - - - ESE 33 35 18 19 1000.3 - -
28/04:30am 27.4 - - - - ESE 32 35 17 19 1000.2 - -
28/04:29am 27.5 - - - - ESE 32 - 17 - - 1000.4 -
28/04:00am 27.4 - - - - ESE 30 35 16 19 1000.2 - -
28/03:30am 27.4 - - - - ESE 30 33 16 18 1000.3 - -
28/03:29am 27.3 - - - - ESE 30 - 16 - - 1000.5 -
28/03:00am 26.9 - - - - ESE 30 35 16 19 1000.5 - -
28/02:30am 26.5 - - - - SE 32 35 17 19 1000.7 - -
28/02:29am 26.2 - - - - SE 32 - 17 - - 1000.9 -
28/02:00am 26.4 - - - - ESE 32 35 17 19 1000.9 - -
28/01:30am 27.3 - - - - E 28 33 15 18 1001.3 - -
28/01:29am 27.3 - - - - E 28 - 15 - - 1001.6 -
28/01:00am 27.5 - - - - E 30 32 16 17 1001.6 - -
28/12:30am 27.0 - - - - ESE 20 28 11 15 1002.1 - -
28/12:29am 27.0 - - - - ESE 20 - 11 - - 1002.3 -
28/12:00am 26.3 - - - - ESE 28 33 15 18 1002.3 - -
 
Date/Time
EST
Temp
°C
App
Temp
°C
Dew
Point
Rel
Hum
%
Delta-T
°C
Wind Press
QNH
hPa
Press
MSL
hPa
Rain
since 9 am
mm
Dir
 
Spd
km/h
Gust
km/h
Spd
kts
Gust
kts
27/11:30pm 25.2 - - - - ESE 30 35 16 19 1002.6 - -
27/11:29pm 25.3 - - - - ESE 30 - 16 - - 1002.8 -
27/11:00pm 25.1 - - - - ESE 33 37 18 20 1003.1 - -
27/10:30pm 25.9 - - - - ESE 37 44 20 24 1003.3 - -
27/10:29pm 26.0 - - - - ESE 35 - 19 - - 1003.5 -
27/10:00pm 27.2 - - - - ESE 32 37 17 20 1003.4 - -
27/09:30pm 27.3 - - - - ESE 22 26 12 14 1003.4 - -
27/09:29pm 27.3 - - - - ESE 22 - 12 - - 1003.6 -
27/09:00pm 26.7 - - - - ESE 33 41 18 22 1003.4 - -
27/08:30pm 27.6 - - - - ESE 26 32 14 17 1002.9 - -
27/08:29pm 27.5 - - - - ESE 26 - 14 - - 1003.2 -
27/08:00pm 27.4 - - - - ESE 28 33 15 18 1002.7 - -
27/07:30pm 27.3 - - - - ESE 33 39 18 21 1002.0 - -
27/07:29pm 27.3 - - - - ESE 32 - 17 - - 1002.1 -
27/07:00pm 27.9 - - - - E 28 32 15 17 1002.2 - -
27/06:30pm 28.0 - - - - E 28 30 15 16 1001.9 - -
27/06:29pm 28.2 - - - - E 28 - 15 - - 1002.1 -
27/06:00pm 28.2 - - - - E 24 28 13 15 1001.5 - -
27/05:30pm 28.2 - - - - E 24 26 13 14 1001.1 - -
27/05:29pm 28.1 - - - - E 24 - 13 - - 1001.3 -
27/05:00pm 28.2 - - - - E 19 22 10 12 1001.0 - -
27/04:30pm 28.1 - - - - E 20 22 11 12 1001.0 - -
27/04:29pm 28.1 - - - - E 20 - 11 - - 1001.2 -
27/04:00pm 28.5 - - - - ESE 19 20 10 11 1001.2 - -
27/03:30pm 28.3 - - - - E 17 20 9 11 1001.1 - -
27/03:29pm 28.2 - - - - E 17 - 9 - - 1001.3 -
27/03:00pm 27.2 - - - - ESE 17 20 9 11 1001.2 - -
27/02:30pm 26.7 - - - - ESE 19 20 10 11 1001.5 - -
27/02:29pm 26.7 - - - - ESE 19 - 10 - - 1001.7 -
27/02:00pm 26.4 - - - - ESE 24 26 13 14 1001.9 - -
27/01:30pm 26.1 - - - - SE 13 17 7 9 1002.2 - -
27/01:29pm 26.1 - - - - SE 15 - 8 - - 1002.5 -
27/01:00pm 26.2 - - - - S 19 22 10 12 1002.6 - -
27/12:30pm 26.0 - - - - S 20 26 11 14 1002.9 - -
27/12:29pm 26.1 - - - - S 22 - 12 - - 1003.1 -
27/12:00pm 28.0 - - - - NNE 11 15 6 8 1002.8 - -
27/11:30am 28.2 - - - - NNE 11 15 6 8 1003.2 - -
27/11:29am 28.4 - - - - NNE 9 - 5 - - 1003.4 -
27/11:00am 29.9 - - - - ESE 6 7 3 4 1003.4 - -
27/10:30am 28.6 - - - - NE 6 7 3 4 1003.5 - -
27/10:29am 28.7 - - - - NE 6 - 3 - - 1003.7 -
27/10:00am 29.2 - - - - E 11 13 6 7 1003.6 - -
27/09:30am 28.4 - - - - ENE 11 13 6 7 1003.7 - -
27/09:29am 28.4 - - - - ENE 11 - 6 - - 1003.9 -
27/09:00am 28.4 - - - - ENE 15 17 8 9 1003.6 - -
27/08:30am 28.3 - - - - ENE 17 20 9 11 1003.6 - -
27/08:29am 28.3 - - - - ENE 17 - 9 - - 1003.7 -
27/08:00am 28.7 - - - - E 13 17 7 9 1003.5 - -
27/07:30am 28.3 - - - - E 17 19 9 10 1003.1 - -
27/07:29am 28.3 - - - - E 15 - 8 - - 1003.4 -
27/07:00am 28.5 - - - - E 15 17 8 9 1003.2 - -
27/06:30am 28.5 - - - - E 13 15 7 8 1003.2 - -
27/06:29am 28.5 - - - - E 13 - 7 - - 1003.4 -
27/06:00am 28.0 - - - - E 11 13 6 7 1002.9 - -
27/05:30am 27.8 - - - - ENE 11 13 6 7 1002.7 - -
27/05:29am 27.8 - - - - ENE 11 - 6 - - 1002.9 -
27/05:00am 27.7 - - - - ENE 15 17 8 9 1002.3 - -
27/04:30am 27.7 - - - - E 13 17 7 9 1002.5 - -
27/04:29am 27.6 - - - - E 13 - 7 - - 1002.7 -
27/04:00am 27.8 - - - - E 15 17 8 9 1002.5 - -
27/03:30am 27.7 - - - - E 11 15 6 8 1002.4 - -
27/03:29am 27.8 - - - - E 11 - 6 - - 1002.6 -
27/03:00am 27.7 - - - - ENE 13 15 7 8 1002.2 - -
27/02:30am 27.7 - - - - E 15 17 8 9 1002.5 - -
27/02:29am 27.7 - - - - E 15 - 8 - - 1002.7 -
27/02:00am 27.7 - - - - ESE 17 20 9 11 1002.5 - -
27/01:30am 27.9 - - - - ESE 15 17 8 9 1002.8 - -
27/01:29am 27.8 - - - - ESE 15 - 8 - - 1003.0 -
27/01:00am 27.7 - - - - ESE 15 19 8 10 1002.6 - -
27/12:30am 27.9 - - - - ESE 19 20 10 11 1003.3 - -
27/12:29am 27.8 - - - - ESE 19 - 10 - - 1003.5 -
27/12:00am 28.0 - - - - ESE 15 17 8 9 1003.5 - -
 
Date/Time
EST
Temp
°C
App
Temp
°C
Dew
Point
Rel
Hum
%
Delta-T
°C
Wind Press
QNH
hPa
Press
MSL
hPa
Rain
since 9 am
mm
Dir
 
Spd
km/h
Gust
km/h
Spd
kts
Gust
kts
26/11:30pm 28.1 - - - - E 11 13 6 7 1003.6 - -
26/11:29pm 28.2 - - - - E 11 - 6 - - 1003.8 -
26/11:00pm 28.3 - - - - E 9 11 5 6 1003.7 - -
26/10:30pm 28.4 - - - - ENE 7 9 4 5 1004.0 - -
26/10:29pm 28.5 - - - - ENE 7 - 4 - - 1004.3 -
26/10:00pm 28.7 - - - - E 11 13 6 7 1004.2 - -
26/09:30pm 28.3 - - - - E 13 15 7 8 1004.4 - -
26/09:29pm 28.3 - - - - E 13 - 7 - - 1004.6 -
26/09:00pm 28.4 - - - - E 13 15 7 8 1004.4 - -
26/08:30pm 28.4 - - - - E 9 11 5 6 1004.3 - -
26/08:29pm 28.3 - - - - E 9 - 5 - - 1004.5 -
26/08:00pm 28.4 - - - - E 13 15 7 8 1004.2 - -
26/07:30pm 28.4 - - - - ENE 11 11 6 6 1003.9 - -
26/07:29pm 28.3 - - - - ENE 11 - 6 - - 1004.1 -
26/07:00pm 28.3 - - - - ENE 9 13 5 7 1003.9 - -
26/06:30pm 28.4 - - - - NE 9 11 5 6 1003.5 - -
26/06:29pm 28.5 - - - - NE 9 - 5 - - 1003.7 -
26/06:00pm 28.6 - - - - NNE 9 9 5 5 1003.3 - -
26/05:30pm 28.4 - - - - NNE 9 11 5 6 1003.3 - -
26/05:29pm 28.5 - - - - NNE 9 - 5 - - 1003.5 -
26/05:00pm 28.6 - - - - N 9 11 5 6 1003.0 - -
26/04:30pm 28.5 - - - - N 9 11 5 6 1003.0 - -
26/04:29pm 28.6 - - - - N 9 - 5 - - 1003.2 -
26/04:00pm 28.5 - - - - N 9 11 5 6 1003.0 - -
26/03:30pm 28.5 - - - - N 11 11 6 6 1003.0 - -
26/03:29pm 28.5 - - - - N 9 - 5 - - 1003.3 -
26/03:00pm 28.6 - - - - NNW 7 9 4 5 1003.4 - -
26/02:30pm 28.7 - - - - NNW 6 7 3 4 1003.7 - -
26/02:29pm 28.7 - - - - NNW 6 - 3 - - 1003.9 -
26/02:00pm 28.6 - - - - N 7 9 4 5 1003.6 - -
26/01:30pm 28.6 - - - - NNW 6 7 3 4 1003.5 - -
26/01:29pm 28.6 - - - - NNW 6 - 3 - - 1003.7 -
26/01:00pm 28.8 - - - - N 2 6 1 3 1003.7 - -
26/12:30pm 28.4 - - - - N 9 11 5 6 1003.8 - -
26/12:29pm 28.4 - - - - N 9 - 5 - - 1004.0 -
26/12:00pm 28.3 - - - - NW 11 13 6 7 1004.1 - -
26/11:30am 28.4 - - - - NNW 15 19 8 10 1004.3 - -
26/11:29am 28.3 - - - - NNW 15 - 8 - - 1004.5 -
26/11:00am 28.4 - - - - NW 13 15 7 8 1004.6 - -
26/10:30am 28.3 - - - - NW 11 13 6 7 1005.0 - -
26/10:29am 28.3 - - - - NW 11 - 6 - - 1005.2 -
26/10:00am 28.2 - - - - WNW 13 15 7 8 1005.3 - -
26/09:30am 28.3 - - - - W 11 13 6 7 1005.4 - -
26/09:29am 28.3 - - - - W 11 - 6 - - 1005.6 -
26/09:00am 28.1 - - - - WNW 13 15 7 8 1005.3 - -
26/08:30am 28.0 - - - - NW 11 13 6 7 1005.5 - -
26/08:29am 28.0 - - - - NW 11 - 6 - - 1005.7 -
26/08:00am 27.9 - - - - WNW 13 13 7 7 1005.5 - -
26/07:30am 27.8 - - - - NW 19 20 10 11 1005.2 - -
26/07:29am 27.8 - - - - NW 19 - 10 - - 1005.3 -
26/07:00am 27.7 - - - - NW 17 19 9 10 1005.2 - -
26/06:30am 27.6 - - - - NW 19 20 10 11 1005.5 - -
26/06:29am 27.6 - - - - NW 19 - 10 - - 1005.7 -
26/06:00am 27.4 - - - - NNW 15 17 8 9 1004.9 - -
26/05:30am 27.4 - - - - N 19 20 10 11 1004.6 - -
26/05:29am 27.3 - - - - N 19 - 10 - - 1004.8 -
26/05:00am 27.4 - - - - N 26 30 14 16 1004.3 - -
26/04:30am 27.1 - - - - N 17 20 9 11 1004.0 - -
26/04:29am 27.2 - - - - N 17 - 9 - - 1004.2 -
26/04:00am 26.2 - - - - NNE 20 22 11 12 1003.6 - -
26/03:30am 25.3 - - - - ENE 22 24 12 13 1004.1 - -
26/03:29am 25.5 - - - - ENE 22 - 12 - - 1004.3 -
26/03:00am 24.5 - - - - SE 22 26 12 14 1004.7 - -
26/02:50am 24.6 - - - - SE 24 32 13 17 1005.1 - -
26/02:30am 24.2 - - - - SSE 43 48 23 26 1005.1 - -
26/02:29am 24.2 - - - - SSE 43 - 23 - - 1005.3 -
26/02:18am 25.6 - - - - SSE 28 50 15 27 1005.2 - -
26/02:00am 28.0 - - - - W 17 19 9 10 1005.5 - -
26/01:30am 27.9 - - - - NW 17 20 9 11 1005.1 - -
26/01:29am 28.0 - - - - NW 17 - 9 - - 1005.3 -
26/01:00am 28.0 - - - - NW 19 20 10 11 1005.5 - -
26/12:30am 28.0 - - - - NW 22 26 12 14 1005.8 - -
26/12:29am 28.1 - - - - NW 22 - 12 - - 1006.0 -
26/12:00am 28.1 - - - - WNW 22 28 12 15 1006.4 - -
 
Date/Time
EST
Temp
°C
App
Temp
°C
Dew
Point
Rel
Hum
%
Delta-T
°C
Wind Press
QNH
hPa
Press
MSL
hPa
Rain
since 9 am
mm
Dir
 
Spd
km/h
Gust
km/h
Spd
kts
Gust
kts
25/11:30pm 28.2 - - - - WNW 26 30 14 16 1006.5 - -
25/11:29pm 28.2 - - - - WNW 26 - 14 - - 1006.8 -
25/11:00pm 28.2 - - - - NNW 26 28 14 15 1005.8 - -
25/10:30pm 28.3 - - - - NNW 26 28 14 15 1005.7 - -
25/10:29pm 28.3 - - - - NNW 26 - 14 - - 1006.0 -
25/10:00pm 28.3 - - - - N 28 32 15 17 1005.8 - -
25/09:30pm 28.3 - - - - NNW 24 28 13 15 1006.2 - -
25/09:29pm 28.4 - - - - NNW 24 - 13 - - 1006.4 -
25/09:00pm 28.3 - - - - NNW 22 26 12 14 1005.3 - -
25/08:30pm 28.2 - - - - NNW 20 24 11 13 1005.3 - -
25/08:29pm 28.3 - - - - NNW 20 - 11 - - 1005.5 -
25/08:00pm 28.3 - - - - N 22 26 12 14 1005.7 - -
25/07:30pm 28.3 - - - - N 22 24 12 13 1005.4 - -
25/07:29pm 28.3 - - - - N 22 - 12 - - 1005.6 -

Other Formats:

Comma delimited format used in spreadsheet applications
http://www.bom.gov.au/fwo/IDQ60801/IDQ60801.94379.axf

JavaScript Object Notation format (JSON) in row-major order
http://www.bom.gov.au/fwo/IDQ60801/IDQ60801.94379.json